Time;durP1;ratioP1;P1;durP2;ratioP2;P2;SDS_P1;SDS_P2;PMS_P1;PMS_P2;Temp;Humidity;BMP_temperature;BMP_pressure;BME280_temperature;BME280_humidity;BME280_pressure;Samples;Min_cycle;Max_cycle;Signal;HPM_P1;HPM_P2
2021/03/15 00:00:16;;;;;;;119.85;42.60;;;-0.70;99.90;;;;;;4463496;28;663124;-63
2021/03/15 00:03:04;;;;;;;132.77;45.37;;;-0.70;99.90;;;;;;4436622;28;660950;-64
2021/03/15 00:05:51;;;;;;;130.13;43.37;;;-0.60;99.90;;;;;;4460128;28;661007;-63
2021/03/15 00:08:38;;;;;;;115.13;42.47;;;-0.60;99.90;;;;;;4441309;28;661843;-64
2021/03/15 00:11:25;;;;;;;111.10;42.23;;;-0.50;99.90;;;;;;4463604;28;661440;-63
2021/03/15 00:14:12;;;;;;;109.57;40.53;;;-0.50;99.90;;;;;;4445291;28;660822;-63
2021/03/15 00:16:59;;;;;;;106.93;40.90;;;-0.50;99.90;;;;;;4458365;28;662221;-63
2021/03/15 00:19:47;;;;;;;106.10;39.13;;;-0.40;99.90;;;;;;4464992;28;661100;-64
2021/03/15 00:22:34;;;;;;;101.90;38.63;;;-0.40;99.90;;;;;;4440288;28;660858;-64
2021/03/15 00:25:21;;;;;;;119.73;41.43;;;-0.30;99.90;;;;;;4465356;28;661189;-63
2021/03/15 00:28:08;;;;;;;116.47;41.60;;;-0.20;99.90;;;;;;4434295;28;662444;-63
2021/03/15 00:30:55;;;;;;;124.30;45.10;;;-0.20;99.90;;;;;;4462734;28;663389;-64
2021/03/15 00:33:42;;;;;;;123.90;43.17;;;-0.20;99.90;;;;;;4433668;28;660567;-63
2021/03/15 00:36:30;;;;;;;116.63;42.87;;;-0.20;99.90;;;;;;4464541;28;661998;-63
2021/03/15 00:39:17;;;;;;;119.27;40.93;;;-0.20;99.90;;;;;;4444403;28;661899;-63
2021/03/15 00:42:05;;;;;;;113.43;40.57;;;-0.20;99.90;;;;;;4464240;28;662319;-64
2021/03/15 00:44:52;;;;;;;118.50;40.93;;;-0.20;99.90;;;;;;4444460;28;660771;-63
2021/03/15 00:47:39;;;;;;;102.23;39.73;;;-0.20;99.90;;;;;;4462941;28;660572;-64
2021/03/15 00:50:28;;;;;;;101.00;39.97;;;-0.10;99.90;;;;;;4464166;28;660805;-63
2021/03/15 00:53:16;;;;;;;109.83;40.13;;;0.00;99.90;;;;;;4440888;28;662528;-63
2021/03/15 00:56:03;;;;;;;116.60;40.42;;;0.00;99.90;;;;;;4443887;28;660086;-63
2021/03/15 00:58:51;;;;;;;101.93;40.40;;;0.10;99.90;;;;;;4448251;28;661089;-63
2021/03/15 01:01:37;;;;;;;99.13;38.67;;;0.10;99.90;;;;;;4439053;28;659902;-64
2021/03/15 01:04:24;;;;;;;92.90;36.13;;;0.10;99.90;;;;;;4465512;28;659299;-64
2021/03/15 01:07:12;;;;;;;88.57;36.60;;;0.10;99.90;;;;;;4460527;28;658786;-63
2021/03/15 01:10:00;;;;;;;100.27;38.77;;;0.10;99.90;;;;;;4442964;28;660733;-63
2021/03/15 01:12:47;;;;;;;89.27;35.03;;;0.10;99.90;;;;;;4454110;28;659653;-63
2021/03/15 01:15:34;;;;;;;94.90;35.00;;;0.00;99.90;;;;;;4465878;28;659748;-63
2021/03/15 01:18:21;;;;;;;92.15;37.63;;;0.00;99.90;;;;;;4460160;28;659301;-63
2021/03/15 01:21:08;;;;;;;101.43;37.40;;;-0.10;99.90;;;;;;4446774;28;659198;-64
2021/03/15 01:23:55;;;;;;;81.53;33.43;;;-0.20;99.90;;;;;;4455944;28;662040;-63
2021/03/15 01:26:43;;;;;;;109.17;37.87;;;-0.20;99.90;;;;;;4446981;28;659949;-63
2021/03/15 01:29:30;;;;;;;120.33;39.47;;;-0.30;99.90;;;;;;4463331;28;662695;-64
2021/03/15 01:32:17;;;;;;;110.57;39.53;;;-0.40;99.90;;;;;;4449665;28;660576;-63
2021/03/15 01:35:05;;;;;;;123.43;42.57;;;-0.40;99.90;;;;;;4452298;28;661578;-63
2021/03/15 01:37:53;;;;;;;112.70;38.93;;;-0.50;99.90;;;;;;4440337;28;661656;-63
2021/03/15 01:40:40;;;;;;;89.20;33.67;;;-0.50;99.90;;;;;;4461932;28;662444;-63
2021/03/15 01:43:28;;;;;;;82.17;32.10;;;-0.60;99.90;;;;;;4449234;28;659740;-61
2021/03/15 01:46:15;;;;;;;84.97;32.00;;;-0.60;99.90;;;;;;4467750;28;660568;-64
2021/03/15 01:49:02;;;;;;;81.93;31.00;;;-0.60;99.90;;;;;;4451087;28;660026;-62
2021/03/15 01:51:49;;;;;;;88.40;33.67;;;-0.70;99.90;;;;;;4463900;28;661558;-63
2021/03/15 01:54:37;;;;;;;91.03;36.07;;;-0.70;99.90;;;;;;4458337;28;659951;-64
2021/03/15 01:57:24;;;;;;;98.73;39.47;;;-0.70;99.90;;;;;;4441301;28;660990;-64
2021/03/15 02:00:14;;;;;;;90.20;36.93;;;-0.70;99.90;;;;;;4459188;28;660027;-64
2021/03/15 02:03:01;;;;;;;88.23;35.67;;;-0.70;99.90;;;;;;4441244;28;659620;-64
2021/03/15 02:05:48;;;;;;;90.37;36.30;;;-0.60;99.90;;;;;;4441512;28;659754;-63
2021/03/15 02:08:35;;;;;;;84.93;34.73;;;-0.60;99.90;;;;;;4456247;28;660197;-64
2021/03/15 02:11:40;;;;;;;94.13;35.43;;;-0.60;99.90;;;;;;4443414;28;660602;-62
2021/03/15 02:14:32;;;;;;;89.20;34.97;;;-0.60;99.90;;;;;;4426691;28;660766;-63
2021/03/15 02:17:25;;;;;;;83.33;33.90;;;-0.70;99.90;;;;;;4437455;28;661186;-63
2021/03/15 02:20:37;;;;;;;76.33;31.50;;;-0.60;99.90;;;;;;4421945;28;660906;-63
2021/03/15 02:23:24;;;;;;;77.47;32.13;;;-0.70;99.90;;;;;;4437950;28;660262;-64
2021/03/15 02:26:27;;;;;;;74.33;31.07;;;-0.70;99.90;;;;;;4463828;28;659758;-64
2021/03/15 02:29:30;;;;;;;82.60;32.63;;;-0.70;99.90;;;;;;4412088;28;660134;-64
2021/03/15 02:32:23;;;;;;;80.60;33.30;;;-0.70;99.90;;;;;;4433177;28;660381;-64
2021/03/15 02:35:11;;;;;;;79.83;33.03;;;-0.70;99.90;;;;;;4439831;28;660099;-64
2021/03/15 02:38:02;;;;;;;83.47;32.30;;;-0.70;99.90;;;;;;4433631;28;660347;-64
2021/03/15 02:40:51;;;;;;;79.37;33.63;;;-0.70;99.90;;;;;;4439746;28;661808;-63
2021/03/15 02:43:42;;;;;;;80.30;32.80;;;-0.70;99.90;;;;;;4437245;28;661177;-63
2021/03/15 02:46:29;;;;;;;84.27;32.03;;;-0.60;99.90;;;;;;4439189;28;661609;-64
2021/03/15 02:49:16;;;;;;;78.30;32.83;;;-0.60;99.90;;;;;;4456541;28;660717;-64
2021/03/15 02:52:05;;;;;;;88.53;34.97;;;-0.60;99.90;;;;;;4444777;28;660462;-64
2021/03/15 02:54:54;;;;;;;92.35;35.88;;;-0.60;99.90;;;;;;4448834;28;659530;-63
2021/03/15 02:57:42;;;;;;;94.37;38.10;;;-0.50;99.90;;;;;;4455221;28;659935;-63
2021/03/15 03:00:29;;;;;;;94.23;39.30;;;-0.50;99.90;;;;;;4444139;28;660495;-63
2021/03/15 03:03:18;;;;;;;101.03;42.27;;;-0.40;99.90;;;;;;4457403;28;660245;-63
2021/03/15 03:06:05;;;;;;;108.27;41.67;;;-0.40;99.90;;;;;;4430025;28;661732;-63
2021/03/15 03:08:53;;;;;;;106.67;42.37;;;-0.30;99.90;;;;;;4439640;28;661777;-63
2021/03/15 03:11:40;;;;;;;108.77;42.97;;;-0.30;99.90;;;;;;4461651;28;661826;-64
2021/03/15 03:14:27;;;;;;;100.57;40.67;;;-0.20;99.90;;;;;;4442108;28;661665;-63
2021/03/15 03:17:15;;;;;;;101.90;39.67;;;-0.20;99.90;;;;;;4465208;28;662232;-64
2021/03/15 03:20:03;;;;;;;98.80;40.07;;;-0.20;99.90;;;;;;4451097;28;660781;-63
2021/03/15 03:22:52;;;;;;;101.87;38.90;;;-0.30;99.90;;;;;;4463349;28;661704;-64
2021/03/15 03:25:39;;;;;;;95.80;38.93;;;-0.30;99.90;;;;;;4429385;28;661561;-64
2021/03/15 03:28:27;;;;;;;97.27;35.73;;;-0.20;99.90;;;;;;4455166;28;660264;-63
2021/03/15 03:31:13;;;;;;;101.17;37.07;;;-0.20;99.90;;;;;;4428359;28;659521;-63
2021/03/15 03:34:00;;;;;;;85.87;36.07;;;-0.20;99.90;;;;;;4444433;28;660859;-64
2021/03/15 03:36:47;;;;;;;93.23;36.03;;;-0.10;99.90;;;;;;4423072;28;660646;-63
2021/03/15 03:39:34;;;;;;;99.10;36.87;;;-0.10;99.90;;;;;;4467511;28;660713;-63
2021/03/15 03:42:22;;;;;;;92.80;36.38;;;-0.10;99.90;;;;;;4462509;28;660866;-64
2021/03/15 03:45:10;;;;;;;91.10;38.50;;;0.00;99.90;;;;;;4439743;28;661024;-64
2021/03/15 03:47:57;;;;;;;94.83;38.93;;;0.00;99.90;;;;;;4442995;28;660152;-63
2021/03/15 03:50:44;;;;;;;111.40;41.13;;;0.10;99.90;;;;;;4452140;28;658583;-64
2021/03/15 03:53:33;;;;;;;94.43;39.07;;;0.10;99.90;;;;;;4444360;28;660396;-64
2021/03/15 03:56:24;;;;;;;103.53;39.23;;;0.10;99.90;;;;;;4422230;28;660417;-64
2021/03/15 03:59:15;;;;;;;107.10;40.73;;;0.10;99.90;;;;;;4430614;28;659477;-63
2021/03/15 04:02:03;;;;;;;103.43;42.77;;;0.20;99.90;;;;;;4417027;28;660159;-63
2021/03/15 04:04:53;;;;;;;102.33;41.03;;;0.20;99.90;;;;;;4464477;28;661084;-64
2021/03/15 04:07:44;;;;;;;104.03;40.80;;;0.30;99.90;;;;;;4439743;28;660764;-63
2021/03/15 04:10:32;;;;;;;89.20;37.77;;;0.30;99.90;;;;;;4422355;28;661141;-64
2021/03/15 04:13:20;;;;;;;88.67;38.23;;;0.30;99.90;;;;;;4431802;28;658711;-63
2021/03/15 04:16:08;;;;;;;89.67;35.23;;;0.30;99.90;;;;;;4442399;28;658647;-63
2021/03/15 04:18:56;;;;;;;85.57;35.27;;;0.30;99.90;;;;;;4439471;28;660123;-64
2021/03/15 04:21:42;;;;;;;90.97;36.73;;;0.30;99.90;;;;;;4417051;28;659718;-63
2021/03/15 04:24:30;;;;;;;83.83;36.97;;;0.30;99.90;;;;;;4463760;28;660590;-64
2021/03/15 04:27:17;;;;;;;98.70;38.97;;;0.30;99.90;;;;;;4458925;28;658884;-63
2021/03/15 04:30:05;;;;;;;84.10;36.20;;;0.30;99.90;;;;;;4463233;28;659169;-63
2021/03/15 04:32:53;;;;;;;90.60;37.97;;;0.40;99.90;;;;;;4445606;28;658638;-62
2021/03/15 04:35:42;;;;;;;89.20;37.20;;;0.40;99.90;;;;;;4464401;28;660311;-63
2021/03/15 04:38:29;;;;;;;90.27;37.87;;;0.40;99.90;;;;;;4440803;28;660567;-64
2021/03/15 04:41:16;;;;;;;92.90;36.37;;;0.40;99.90;;;;;;4453715;28;659838;-64
2021/03/15 04:44:03;;;;;;;87.60;34.73;;;0.40;99.90;;;;;;4443393;28;659412;-63
2021/03/15 04:46:51;;;;;;;88.17;35.83;;;0.40;99.90;;;;;;4457633;28;659587;-64
2021/03/15 04:49:39;;;;;;;83.13;34.27;;;0.50;99.90;;;;;;4444627;28;658688;-63
2021/03/15 04:52:26;;;;;;;84.17;35.57;;;0.50;99.90;;;;;;4462949;28;658304;-64
2021/03/15 04:55:14;;;;;;;81.93;34.60;;;0.50;99.90;;;;;;4438535;28;659143;-64
2021/03/15 04:58:04;;;;;;;84.50;33.50;;;0.50;99.90;;;;;;4456946;28;659747;-63
2021/03/15 05:00:52;;;;;;;80.33;32.90;;;0.50;99.90;;;;;;4434593;28;659566;-64
2021/03/15 05:03:39;;;;;;;83.77;35.17;;;0.60;99.90;;;;;;4432709;28;660635;-63
2021/03/15 05:06:27;;;;;;;81.07;33.07;;;0.60;99.90;;;;;;4463099;28;659016;-64
2021/03/15 05:09:14;;;;;;;89.10;33.83;;;0.60;99.90;;;;;;4438785;28;659912;-64
2021/03/15 05:12:01;;;;;;;83.23;34.13;;;0.60;99.90;;;;;;4466230;28;658687;-64
2021/03/15 05:14:49;;;;;;;81.13;32.72;;;0.70;99.90;;;;;;4447007;28;658728;-63
2021/03/15 05:17:36;;;;;;;83.30;35.27;;;0.70;99.90;;;;;;4466243;28;659682;-64
2021/03/15 05:20:23;;;;;;;79.20;34.90;;;0.80;99.90;;;;;;4440741;28;659477;-63
2021/03/15 05:23:11;;;;;;;85.40;34.43;;;0.80;99.90;;;;;;4466272;28;659849;-64
2021/03/15 05:25:58;;;;;;;89.90;36.23;;;0.80;99.90;;;;;;4437365;28;658736;-64
2021/03/15 05:28:45;;;;;;;84.80;35.67;;;0.80;99.90;;;;;;4466182;28;659426;-64
2021/03/15 05:31:32;;;;;;;90.30;38.03;;;0.90;99.90;;;;;;4434317;28;658855;-63
2021/03/15 05:34:20;;;;;;;85.20;36.17;;;0.90;99.90;;;;;;4470478;28;660177;-64
2021/03/15 05:37:07;;;;;;;88.07;35.75;;;0.90;99.90;;;;;;4451801;28;659551;-63
2021/03/15 05:39:55;;;;;;;90.90;37.83;;;0.90;99.90;;;;;;4469953;28;659590;-63
2021/03/15 05:42:48;;;;;;;89.72;37.50;;;0.90;99.90;;;;;;4443157;28;658617;-64
2021/03/15 05:45:55;;;;;;;90.60;37.57;;;1.00;99.90;;;;;;4443230;28;659214;-64
2021/03/15 05:49:16;;;;;;;86.10;35.93;;;1.10;99.90;;;;;;4426149;28;659136;-64
2021/03/15 05:52:06;;;;;;;85.07;36.53;;;1.10;99.90;;;;;;4340063;28;658515;-64
2021/03/15 05:55:22;;;;;;;88.87;38.23;;;1.10;99.90;;;;;;4371255;28;658435;-63
2021/03/15 05:58:34;;;;;;;87.40;36.13;;;1.10;99.90;;;;;;4273362;29;660382;-63
2021/03/15 06:01:41;;;;;;;90.93;37.40;;;1.20;99.90;;;;;;4303264;29;658889;-64
2021/03/15 06:05:00;;;;;;;90.67;37.17;;;1.20;99.90;;;;;;4306761;29;658776;-63
2021/03/15 06:07:48;;;;;;;94.57;37.03;;;1.30;99.90;;;;;;4221343;29;658587;-63
2021/03/15 06:10:48;;;;;;;113.60;46.50;;;1.40;99.90;;;;;;4257543;29;659153;-64
2021/03/15 06:13:36;;;;;;;111.23;43.93;;;1.40;99.90;;;;;;4233345;29;660598;-64
2021/03/15 06:16:23;;;;;;;121.17;49.67;;;1.50;99.90;;;;;;4219163;29;659561;-63
2021/03/15 06:19:10;;;;;;;104.27;46.07;;;1.50;99.90;;;;;;4268743;29;661169;-64
2021/03/15 06:21:57;;;;;;;95.60;41.97;;;1.60;99.90;;;;;;4273368;29;659873;-64
2021/03/15 06:24:44;;;;;;;98.13;43.03;;;1.70;99.90;;;;;;4249252;29;660318;-63
2021/03/15 06:27:32;;;;;;;92.87;39.70;;;1.70;99.90;;;;;;4269220;29;659624;-64
2021/03/15 06:30:20;;;;;;;86.97;39.10;;;1.80;99.90;;;;;;4242661;29;659072;-63
2021/03/15 06:33:07;;;;;;;86.60;38.90;;;1.90;99.90;;;;;;4310308;28;658802;-64
2021/03/15 06:35:57;;;;;;;85.90;39.20;;;2.00;99.90;;;;;;4301796;28;660005;-63
2021/03/15 06:38:44;;;;;;;82.83;38.00;;;2.00;99.90;;;;;;4350346;28;659001;-67
2021/03/15 06:41:31;;;;;;;88.83;41.07;;;2.10;99.90;;;;;;4391757;28;658625;-66
2021/03/15 06:44:19;;;;;;;88.90;36.83;;;2.20;99.90;;;;;;4363415;28;658709;-67
2021/03/15 06:47:06;;;;;;;77.00;34.90;;;2.20;99.90;;;;;;4389638;28;658653;-65
2021/03/15 06:49:54;;;;;;;78.13;34.27;;;2.30;99.90;;;;;;4462903;28;658692;-65
2021/03/15 06:52:57;;;;;;;74.67;34.53;;;2.40;99.90;;;;;;4458805;28;659856;-67
2021/03/15 06:55:48;;;;;;;72.87;33.53;;;2.40;99.90;;;;;;4371011;28;659751;-67
2021/03/15 06:58:52;;;;;;;75.30;34.63;;;2.50;99.90;;;;;;4470301;28;660115;-66
2021/03/15 07:01:44;;;;;;;77.80;36.30;;;2.60;99.90;;;;;;4408530;28;658812;-67
2021/03/15 07:04:31;;;;;;;75.23;34.83;;;2.60;99.90;;;;;;4404534;28;659280;-66
2021/03/15 07:07:26;;;;;;;74.63;35.97;;;2.80;99.90;;;;;;4503187;28;658474;-67
2021/03/15 07:10:16;;;;;;;68.43;33.03;;;2.80;99.90;;;;;;4446498;28;658613;-66
2021/03/15 07:13:10;;;;;;;67.10;34.13;;;3.20;99.90;;;;;;4464750;28;658515;-66
2021/03/15 07:16:04;;;;;;;76.60;33.20;;;3.50;99.90;;;;;;4520638;28;659341;-64
2021/03/15 07:18:52;;;;;;;67.50;33.03;;;3.90;99.90;;;;;;4408219;28;660980;-66
2021/03/15 07:21:39;;;;;;;61.73;30.53;;;4.20;99.90;;;;;;4431639;28;658763;-66
2021/03/15 07:24:30;;;;;;;63.43;26.97;;;4.60;99.90;;;;;;4441422;28;657886;-67
2021/03/15 07:27:28;;;;;;;43.43;21.10;;;5.00;99.90;;;;;;4462975;28;659015;-64
2021/03/15 07:30:35;;;;;;;44.85;19.88;;;5.00;99.90;;;;;;4439927;28;659916;-66
2021/03/15 07:33:24;;;;;;;40.83;20.30;;;5.00;99.90;;;;;;4418786;28;659499;-64
2021/03/15 07:36:13;;;;;;;51.80;20.83;;;4.80;99.90;;;;;;4446608;28;658623;-65
2021/03/15 07:39:01;;;;;;;37.27;19.10;;;4.80;99.90;;;;;;4425443;28;660159;-65
2021/03/15 07:41:49;;;;;;;41.92;20.35;;;4.80;99.90;;;;;;4431442;28;658859;-65
2021/03/15 07:44:36;;;;;;;38.40;18.07;;;4.90;99.90;;;;;;4447723;28;659229;-66
2021/03/15 07:47:27;;;;;;;41.83;17.83;;;5.10;99.90;;;;;;4427605;28;658719;-66
2021/03/15 07:50:14;;;;;;;35.90;15.53;;;5.40;99.90;;;;;;4423530;28;660222;-66
2021/03/15 07:53:02;;;;;;;38.33;15.93;;;5.60;99.90;;;;;;4446108;28;660030;-65
2021/03/15 07:55:49;;;;;;;33.17;13.40;;;5.70;99.90;;;;;;4428101;28;659593;-66
2021/03/15 07:58:37;;;;;;;33.97;14.70;;;5.80;99.90;;;;;;4464444;28;658589;-66
2021/03/15 08:01:24;;;;;;;37.03;14.23;;;6.20;99.90;;;;;;4441198;28;658659;-65
2021/03/15 08:04:11;;;;;;;36.97;15.30;;;6.50;99.90;;;;;;4464313;28;659918;-66
2021/03/15 08:06:58;;;;;;;39.17;15.60;;;6.70;99.90;;;;;;4428387;28;659148;-66
2021/03/15 08:09:47;;;;;;;37.50;16.27;;;7.10;99.90;;;;;;4442535;28;659050;-66
2021/03/15 08:12:35;;;;;;;37.17;16.33;;;7.30;99.90;;;;;;4425601;28;659701;-66
2021/03/15 08:15:22;;;;;;;27.67;11.43;;;7.90;99.90;;;;;;4453047;28;658524;-63
2021/03/15 08:18:09;;;;;;;36.67;16.65;;;7.80;99.90;;;;;;4458595;28;659908;-65
2021/03/15 08:21:01;;;;;;;42.97;17.80;;;7.70;99.90;;;;;;4447779;28;658115;-67
2021/03/15 08:23:48;;;;;;;44.77;18.63;;;7.20;99.90;;;;;;4410275;28;659067;-65
2021/03/15 08:26:36;;;;;;;43.33;18.83;;;7.10;99.90;;;;;;4450555;28;660030;-66
2021/03/15 08:29:23;;;;;;;41.47;18.03;;;7.00;99.90;;;;;;4426563;28;659484;-66
2021/03/15 08:32:10;;;;;;;36.30;16.17;;;6.80;99.90;;;;;;4446699;28;660618;-66
2021/03/15 08:34:57;;;;;;;39.30;16.13;;;6.80;99.90;;;;;;4431093;28;659746;-62
2021/03/15 08:37:57;;;;;;;38.17;17.20;;;6.70;99.90;;;;;;4458685;28;659059;-67
2021/03/15 08:41:01;;;;;;;45.13;18.63;;;6.80;99.90;;;;;;4402910;28;660252;-67
2021/03/15 08:43:51;;;;;;;42.03;18.60;;;6.90;99.90;;;;;;4431172;28;658908;-66
2021/03/15 08:46:38;;;;;;;37.27;17.60;;;7.20;99.90;;;;;;4431983;28;658789;-65
2021/03/15 08:49:29;;;;;;;38.97;18.17;;;7.50;99.90;;;;;;4466879;28;660052;-66
2021/03/15 08:52:34;;;;;;;37.27;13.97;;;7.80;99.90;;;;;;4426606;28;658563;-65
2021/03/15 08:55:46;;;;;;;37.17;15.40;;;8.20;99.90;;;;;;4436615;28;659519;-66
2021/03/15 08:58:40;;;;;;;36.10;15.77;;;8.20;99.90;;;;;;4431768;28;658691;-67
2021/03/15 09:01:29;;;;;;;31.90;15.90;;;8.70;99.90;;;;;;4419722;28;658223;-64
2021/03/15 09:04:40;;;;;;;35.07;15.90;;;9.20;99.50;;;;;;4452272;28;659124;-67
2021/03/15 09:07:32;;;;;;;28.70;12.57;;;9.00;99.00;;;;;;4448152;28;659301;-64
2021/03/15 09:10:43;;;;;;;14.97;7.07;;;8.90;98.30;;;;;;4434547;28;660327;-66
2021/03/15 09:13:33;;;;;;;16.67;8.40;;;8.50;96.60;;;;;;4433903;28;657519;-66
2021/03/15 09:16:30;;;;;;;20.40;9.13;;;7.80;96.20;;;;;;4430615;28;658276;-67
2021/03/15 09:19:17;;;;;;;14.07;6.67;;;7.20;96.30;;;;;;4419435;28;657451;-63
2021/03/15 09:22:04;;;;;;;16.58;9.27;;;7.00;98.00;;;;;;4465586;28;659060;-65
2021/03/15 09:24:53;;;;;;;19.33;10.30;;;6.70;98.30;;;;;;4461286;28;657622;-66
2021/03/15 09:27:40;;;;;;;20.43;9.70;;;6.70;99.50;;;;;;4447796;28;659557;-66
2021/03/15 09:30:30;;;;;;;28.07;10.30;;;6.80;99.00;;;;;;4448292;28;658754;-64
2021/03/15 09:33:17;;;;;;;22.40;10.90;;;6.90;98.90;;;;;;4460667;28;659182;-67
2021/03/15 09:36:05;;;;;;;20.67;10.47;;;7.00;99.70;;;;;;4443079;28;660247;-66
2021/03/15 09:38:52;;;;;;;23.00;10.93;;;7.10;99.00;;;;;;4463256;28;659031;-66
2021/03/15 09:41:39;;;;;;;19.47;10.10;;;7.00;99.30;;;;;;4399729;28;659282;-66
2021/03/15 09:44:26;;;;;;;25.40;10.57;;;7.00;98.70;;;;;;4457346;28;659228;-66
2021/03/15 09:47:14;;;;;;;25.13;10.83;;;7.00;98.80;;;;;;4429422;28;658633;-65
2021/03/15 09:50:02;;;;;;;23.30;12.53;;;6.90;99.60;;;;;;4459335;28;659815;-67
2021/03/15 09:52:49;;;;;;;20.63;10.73;;;7.00;99.80;;;;;;4442775;28;660003;-67
2021/03/15 09:55:36;;;;;;;23.67;10.40;;;7.10;99.90;;;;;;4466742;28;659527;-66
2021/03/15 09:58:23;;;;;;;24.97;11.03;;;7.30;99.90;;;;;;4429324;28;659260;-65
2021/03/15 10:01:10;;;;;;;22.70;11.03;;;7.20;98.80;;;;;;4465663;28;659857;-67
2021/03/15 10:03:58;;;;;;;23.48;10.02;;;7.30;99.80;;;;;;4436255;28;659451;-63
2021/03/15 10:06:46;;;;;;;24.97;11.20;;;7.60;99.10;;;;;;4462143;28;660275;-66
2021/03/15 10:09:33;;;;;;;21.43;11.13;;;7.80;97.90;;;;;;4445510;28;658934;-65
2021/03/15 10:12:20;;;;;;;21.63;10.33;;;8.10;97.00;;;;;;4461381;28;659771;-67
2021/03/15 10:15:09;;;;;;;19.67;7.93;;;8.70;98.30;;;;;;4436026;28;658803;-65
2021/03/15 10:17:56;;;;;;;19.53;9.03;;;9.20;94.80;;;;;;4451353;28;658781;-67
2021/03/15 10:20:43;;;;;;;18.60;9.20;;;9.30;93.80;;;;;;4441373;28;658025;-66
2021/03/15 10:23:32;;;;;;;16.07;8.10;;;9.00;91.50;;;;;;4461504;28;658594;-66
2021/03/15 10:26:19;;;;;;;21.30;9.90;;;9.40;92.60;;;;;;4439556;27;659039;-67
2021/03/15 10:29:06;;;;;;;20.17;9.50;;;9.50;92.00;;;;;;4467030;28;658323;-66
2021/03/15 10:31:53;;;;;;;22.37;10.10;;;8.50;91.60;;;;;;4442746;28;657557;-66
2021/03/15 10:34:40;;;;;;;20.37;10.13;;;8.10;93.30;;;;;;4451814;28;659035;-66
2021/03/15 10:37:28;;;;;;;20.47;11.00;;;7.80;94.10;;;;;;4459077;28;659881;-62
2021/03/15 10:40:18;;;;;;;25.55;10.35;;;8.00;94.50;;;;;;4464843;28;660417;-65
2021/03/15 10:43:07;;;;;;;23.00;10.03;;;8.20;94.90;;;;;;4441200;28;660450;-64
2021/03/15 10:45:55;;;;;;;21.10;9.40;;;8.00;93.90;;;;;;4444815;28;659636;-66
2021/03/15 10:48:42;;;;;;;22.00;10.00;;;8.00;94.80;;;;;;4467012;28;657446;-66
2021/03/15 10:51:29;;;;;;;22.93;11.10;;;8.10;95.60;;;;;;4438660;28;658720;-66
2021/03/15 10:54:29;;;;;;;19.83;10.63;;;8.10;95.50;;;;;;4454837;28;658343;-67
2021/03/15 10:57:18;;;;;;;18.50;9.40;;;8.20;96.20;;;;;;4433396;28;659967;-67
2021/03/15 11:00:23;;;;;;;19.70;9.47;;;8.30;95.90;;;;;;4437940;28;659782;-67
2021/03/15 11:03:21;;;;;;;20.17;9.30;;;8.40;94.50;;;;;;4443187;28;658187;-67
2021/03/15 11:06:09;;;;;;;19.20;9.37;;;8.40;92.50;;;;;;4420157;28;658135;-65
2021/03/15 11:08:56;;;;;;;17.90;9.10;;;8.30;92.10;;;;;;4464660;28;658826;-67
2021/03/15 11:11:43;;;;;;;18.87;9.53;;;8.40;91.80;;;;;;4442631;28;658686;-66
2021/03/15 11:14:31;;;;;;;19.60;10.13;;;8.30;91.50;;;;;;4462880;28;658108;-66
2021/03/15 11:17:23;;;;;;;21.10;10.43;;;8.50;91.80;;;;;;4422694;28;658643;-66
2021/03/15 11:20:11;;;;;;;15.87;9.10;;;8.40;91.80;;;;;;4417602;28;660306;-67
2021/03/15 11:22:58;;;;;;;17.83;8.70;;;8.50;91.80;;;;;;4423722;28;657389;-65
2021/03/15 11:25:45;;;;;;;19.60;8.27;;;8.60;90.40;;;;;;4464252;28;658409;-66
2021/03/15 11:28:34;;;;;;;15.45;8.18;;;8.40;91.10;;;;;;4451326;28;657689;-62
2021/03/15 11:31:23;;;;;;;13.27;8.30;;;8.60;91.70;;;;;;4452723;28;657612;-66
2021/03/15 11:34:17;;;;;;;16.70;8.50;;;8.50;90.00;;;;;;4427326;28;659516;-63
2021/03/15 11:37:05;;;;;;;16.70;8.87;;;8.40;90.10;;;;;;4432397;28;657738;-66
2021/03/15 11:43:28;;;;;;;18.63;9.50;;;8.10;89.10;;;;;;4338446;28;657604;-67
2021/03/15 11:46:15;;;;;;;17.23;8.20;;;7.70;90.10;;;;;;4362435;28;658699;-66
2021/03/15 11:49:03;;;;;;;13.67;7.70;;;7.90;90.50;;;;;;4344148;28;657691;-62
2021/03/15 11:51:53;;;;;;;14.20;7.80;;;8.20;90.30;;;;;;4359492;28;658757;-65
2021/03/15 11:54:40;;;;;;;15.87;8.50;;;8.20;90.80;;;;;;4327594;28;659051;-66
2021/03/15 11:57:27;;;;;;;13.53;7.33;;;8.40;90.90;;;;;;4339118;28;657503;-63
2021/03/15 12:00:15;;;;;;;15.23;7.70;;;8.70;89.30;;;;;;4364055;28;657605;-66
2021/03/15 12:03:02;;;;;;;15.57;7.70;;;8.60;87.80;;;;;;4341062;28;657435;-65
2021/03/15 12:05:50;;;;;;;13.65;7.50;;;8.60;86.70;;;;;;4363486;28;658674;-67
2021/03/15 12:08:37;;;;;;;13.40;4.95;;;8.70;85.70;;;;;;4334685;28;658451;-63
2021/03/15 12:11:24;;;;;;;14.37;7.83;;;8.70;86.90;;;;;;4363085;28;658037;-64
2021/03/15 12:14:11;;;;;;;14.67;8.27;;;8.40;86.00;;;;;;4358867;28;657213;-66
2021/03/15 12:16:58;;;;;;;12.33;6.87;;;8.60;88.70;;;;;;4337809;28;658833;-64
2021/03/15 12:19:45;;;;;;;9.73;5.77;;;9.10;83.90;;;;;;4360312;28;658601;-66
2021/03/15 12:22:33;;;;;;;5.90;3.00;;;9.20;85.20;;;;;;4356118;28;656652;-64
2021/03/15 12:25:20;;;;;;;9.88;3.88;;;9.60;79.70;;;;;;4433905;28;658212;-67
2021/03/15 12:28:08;;;;;;;13.35;6.82;;;9.90;79.10;;;;;;4416961;28;657327;-64
2021/03/15 12:30:55;;;;;;;13.97;7.40;;;10.10;75.50;;;;;;4451566;28;659579;-67
2021/03/15 12:33:42;;;;;;;13.80;6.50;;;10.40;77.60;;;;;;4441811;28;658418;-63
2021/03/15 12:36:29;;;;;;;12.77;6.80;;;10.50;74.10;;;;;;4462370;28;658786;-66
2021/03/15 12:39:17;;;;;;;11.53;7.20;;;10.10;72.50;;;;;;4460071;28;658022;-66
2021/03/15 12:42:05;;;;;;;7.63;4.37;;;9.80;75.90;;;;;;4434699;28;659614;-66
2021/03/15 12:44:52;;;;;;;12.27;7.27;;;9.70;73.40;;;;;;4457527;28;656447;-62
2021/03/15 12:47:39;;;;;;;14.97;8.20;;;9.20;73.40;;;;;;4463232;28;658187;-66
2021/03/15 12:50:26;;;;;;;14.80;7.37;;;9.00;75.40;;;;;;4460463;28;657548;-67
2021/03/15 12:53:13;;;;;;;11.93;6.78;;;8.90;77.20;;;;;;4449524;28;658003;-66
2021/03/15 12:56:01;;;;;;;13.67;7.90;;;8.80;77.80;;;;;;4465541;28;659529;-65
2021/03/15 12:58:48;;;;;;;15.63;8.57;;;8.70;78.70;;;;;;4442755;28;658110;-66
2021/03/15 13:01:35;;;;;;;18.70;9.20;;;8.60;79.10;;;;;;4467488;28;659157;-66
2021/03/15 13:04:22;;;;;;;15.80;8.23;;;8.70;79.00;;;;;;4446842;28;657795;-64
2021/03/15 13:07:09;;;;;;;15.47;8.70;;;8.60;78.30;;;;;;4467819;28;657394;-67
2021/03/15 13:09:56;;;;;;;14.27;7.90;;;8.60;79.00;;;;;;4468515;28;656872;-66
2021/03/15 13:12:44;;;;;;;16.80;9.00;;;8.60;78.70;;;;;;4449926;27;657616;-67
2021/03/15 13:15:31;;;;;;;14.07;7.37;;;8.80;77.00;;;;;;4471682;27;658566;-66
2021/03/15 13:18:18;;;;;;;16.73;8.50;;;8.80;79.00;;;;;;4432232;28;657771;-65
2021/03/15 13:21:06;;;;;;;16.97;8.23;;;8.60;77.80;;;;;;4462482;28;658510;-66
2021/03/15 13:23:53;;;;;;;18.70;9.03;;;8.60;78.90;;;;;;4448318;28;657609;-66
2021/03/15 13:26:40;;;;;;;16.53;8.67;;;8.60;78.40;;;;;;4445967;28;659564;-66
2021/03/15 13:29:28;;;;;;;17.67;8.83;;;8.40;79.10;;;;;;4442373;28;657970;-64
2021/03/15 13:32:15;;;;;;;18.20;8.90;;;8.60;80.10;;;;;;4451319;28;658933;-66
2021/03/15 13:35:02;;;;;;;12.00;6.27;;;8.70;79.40;;;;;;4444235;28;657741;-63
2021/03/15 13:37:49;;;;;;;15.63;8.00;;;9.00;78.70;;;;;;4465063;28;656881;-67
2021/03/15 13:40:36;;;;;;;21.50;9.83;;;9.10;80.70;;;;;;4442717;28;658693;-66
2021/03/15 13:43:25;;;;;;;48.10;14.23;;;9.20;79.90;;;;;;4428051;28;659041;-64
2021/03/15 13:46:13;;;;;;;46.73;15.93;;;9.40;80.90;;;;;;4446452;28;659549;-63
2021/03/15 13:49:00;;;;;;;16.07;8.70;;;9.40;78.90;;;;;;4463978;28;659862;-67
2021/03/15 13:51:57;;;;;;;14.73;7.83;;;9.30;77.20;;;;;;4441553;28;658067;-64
2021/03/15 13:54:44;;;;;;;15.20;7.50;;;9.00;74.90;;;;;;4406943;28;659038;-67
2021/03/15 13:57:31;;;;;;;17.57;9.10;;;9.00;75.90;;;;;;4456316;28;658861;-66
2021/03/15 14:00:19;;;;;;;18.00;9.17;;;9.10;76.70;;;;;;4441899;28;658138;-66
2021/03/15 14:03:07;;;;;;;17.13;8.40;;;9.10;77.50;;;;;;4459742;28;658065;-67
2021/03/15 14:05:54;;;;;;;17.17;7.80;;;9.10;77.50;;;;;;4430018;28;659451;-66
2021/03/15 14:08:41;;;;;;;16.20;7.27;;;9.30;76.90;;;;;;4452988;28;658374;-65
2021/03/15 14:11:28;;;;;;;15.57;7.43;;;9.70;74.00;;;;;;4426517;28;657770;-67
2021/03/15 14:14:15;;;;;;;16.47;7.50;;;11.40;68.30;;;;;;4440906;28;657816;-67
2021/03/15 14:17:02;;;;;;;11.17;6.03;;;13.50;65.00;;;;;;4432555;28;659998;-63
2021/03/15 14:19:51;;;;;;;12.87;7.50;;;15.30;56.60;;;;;;4459743;27;658737;-67